sensor_id;sensor_type;location;lat;lon;timestamp;temperature;humidity
36416;DHT22;22447;44.530;18.620;2022-11-09T00:01:44;5.60;99.90
36416;DHT22;22447;44.530;18.620;2022-11-09T00:04:10;5.50;99.90
36416;DHT22;22447;44.530;18.620;2022-11-09T00:06:36;5.40;99.90
36416;DHT22;22447;44.530;18.620;2022-11-09T00:09:05;5.50;99.90
36416;DHT22;22447;44.530;18.620;2022-11-09T00:11:31;5.50;99.90
36416;DHT22;22447;44.530;18.620;2022-11-09T00:13:57;5.60;99.90
36416;DHT22;22447;44.530;18.620;2022-11-09T00:16:23;5.80;99.90
36416;DHT22;22447;44.530;18.620;2022-11-09T00:18:49;5.60;99.90
36416;DHT22;22447;44.530;18.620;2022-11-09T00:21:21;5.50;99.90
36416;DHT22;22447;44.530;18.620;2022-11-09T00:23:47;5.40;99.90
36416;DHT22;22447;44.530;18.620;2022-11-09T00:26:15;5.30;99.90
36416;DHT22;22447;44.530;18.620;2022-11-09T00:28:41;5.30;99.90
36416;DHT22;22447;44.530;18.620;2022-11-09T00:31:13;5.40;99.90
36416;DHT22;22447;44.530;18.620;2022-11-09T00:33:39;5.40;99.90
36416;DHT22;22447;44.530;18.620;2022-11-09T00:36:08;5.30;99.90
36416;DHT22;22447;44.530;18.620;2022-11-09T00:38:35;5.30;99.90
36416;DHT22;22447;44.530;18.620;2022-11-09T00:41:04;5.10;99.90
36416;DHT22;22447;44.530;18.620;2022-11-09T00:43:31;5.10;99.90
36416;DHT22;22447;44.530;18.620;2022-11-09T00:45:57;5.20;99.90
36416;DHT22;22447;44.530;18.620;2022-11-09T00:48:23;5.10;99.90
36416;DHT22;22447;44.530;18.620;2022-11-09T00:50:50;5.20;99.90
36416;DHT22;22447;44.530;18.620;2022-11-09T00:53:17;5.20;99.90
36416;DHT22;22447;44.530;18.620;2022-11-09T00:56:09;5.30;99.90
36416;DHT22;22447;44.530;18.620;2022-11-09T00:58:37;5.40;99.90
36416;DHT22;22447;44.530;18.620;2022-11-09T01:01:07;5.30;99.90
36416;DHT22;22447;44.530;18.620;2022-11-09T01:03:36;5.30;99.90
36416;DHT22;22447;44.530;18.620;2022-11-09T01:06:02;5.20;99.90
36416;DHT22;22447;44.530;18.620;2022-11-09T01:08:28;4.90;99.90
36416;DHT22;22447;44.530;18.620;2022-11-09T01:10:55;4.90;99.90
36416;DHT22;22447;44.530;18.620;2022-11-09T01:13:22;4.80;99.90
36416;DHT22;22447;44.530;18.620;2022-11-09T01:15:50;4.70;99.90
36416;DHT22;22447;44.530;18.620;2022-11-09T01:18:18;4.70;99.90
36416;DHT22;22447;44.530;18.620;2022-11-09T01:20:46;4.70;99.90
36416;DHT22;22447;44.530;18.620;2022-11-09T01:23:14;4.50;99.90
36416;DHT22;22447;44.530;18.620;2022-11-09T01:25:40;4.50;99.90
36416;DHT22;22447;44.530;18.620;2022-11-09T01:28:08;4.60;99.90
36416;DHT22;22447;44.530;18.620;2022-11-09T01:30:36;4.60;99.90
36416;DHT22;22447;44.530;18.620;2022-11-09T01:33:04;4.60;99.90
36416;DHT22;22447;44.530;18.620;2022-11-09T01:35:34;4.60;99.90
36416;DHT22;22447;44.530;18.620;2022-11-09T01:38:01;4.70;99.90
36416;DHT22;22447;44.530;18.620;2022-11-09T01:40:28;4.70;99.90
36416;DHT22;22447;44.530;18.620;2022-11-09T01:42:54;4.70;99.90
36416;DHT22;22447;44.530;18.620;2022-11-09T01:45:25;4.70;99.90
36416;DHT22;22447;44.530;18.620;2022-11-09T01:50:54;4.70;99.90
36416;DHT22;22447;44.530;18.620;2022-11-09T01:53:26;4.70;99.90
36416;DHT22;22447;44.530;18.620;2022-11-09T01:55:57;4.70;99.90
36416;DHT22;22447;44.530;18.620;2022-11-09T01:58:29;4.70;99.90
36416;DHT22;22447;44.530;18.620;2022-11-09T02:00:56;4.70;99.90
36416;DHT22;22447;44.530;18.620;2022-11-09T02:03:33;4.70;99.90
36416;DHT22;22447;44.530;18.620;2022-11-09T02:06:03;4.70;99.90
36416;DHT22;22447;44.530;18.620;2022-11-09T02:08:30;4.80;99.90
36416;DHT22;22447;44.530;18.620;2022-11-09T02:11:11;5.10;99.90
36416;DHT22;22447;44.530;18.620;2022-11-09T02:13:37;5.10;99.90
36416;DHT22;22447;44.530;18.620;2022-11-09T02:16:09;4.90;99.90
36416;DHT22;22447;44.530;18.620;2022-11-09T02:18:44;4.90;99.90
36416;DHT22;22447;44.530;18.620;2022-11-09T02:21:12;4.90;99.90
36416;DHT22;22447;44.530;18.620;2022-11-09T02:23:38;4.80;99.90
36416;DHT22;22447;44.530;18.620;2022-11-09T02:26:08;4.70;99.90
36416;DHT22;22447;44.530;18.620;2022-11-09T02:28:37;4.70;99.90
36416;DHT22;22447;44.530;18.620;2022-11-09T02:31:05;4.60;99.90
36416;DHT22;22447;44.530;18.620;2022-11-09T02:33:55;4.60;99.90
36416;DHT22;22447;44.530;18.620;2022-11-09T02:36:25;4.60;99.90
36416;DHT22;22447;44.530;18.620;2022-11-09T02:38:53;4.60;99.90
36416;DHT22;22447;44.530;18.620;2022-11-09T02:41:20;4.70;99.90
36416;DHT22;22447;44.530;18.620;2022-11-09T02:43:48;4.90;99.90
36416;DHT22;22447;44.530;18.620;2022-11-09T02:46:31;5.00;99.90
36416;DHT22;22447;44.530;18.620;2022-11-09T02:48:57;5.10;99.90
36416;DHT22;22447;44.530;18.620;2022-11-09T02:51:23;5.10;99.90
36416;DHT22;22447;44.530;18.620;2022-11-09T02:53:50;5.10;99.90
36416;DHT22;22447;44.530;18.620;2022-11-09T02:56:15;5.10;99.90
36416;DHT22;22447;44.530;18.620;2022-11-09T02:58:41;5.10;99.90
36416;DHT22;22447;44.530;18.620;2022-11-09T03:01:07;5.20;99.90
36416;DHT22;22447;44.530;18.620;2022-11-09T03:03:35;5.30;99.90
36416;DHT22;22447;44.530;18.620;2022-11-09T03:06:01;5.30;99.90
36416;DHT22;22447;44.530;18.620;2022-11-09T03:08:28;5.40;99.90
36416;DHT22;22447;44.530;18.620;2022-11-09T03:10:54;5.30;99.90
36416;DHT22;22447;44.530;18.620;2022-11-09T03:13:20;5.30;99.90
36416;DHT22;22447;44.530;18.620;2022-11-09T03:15:46;5.30;99.90
36416;DHT22;22447;44.530;18.620;2022-11-09T03:18:12;5.30;99.90
36416;DHT22;22447;44.530;18.620;2022-11-09T03:20:38;5.40;99.90
36416;DHT22;22447;44.530;18.620;2022-11-09T03:23:04;5.40;99.90
36416;DHT22;22447;44.530;18.620;2022-11-09T03:25:32;5.50;99.90
36416;DHT22;22447;44.530;18.620;2022-11-09T03:28:00;5.60;99.90
36416;DHT22;22447;44.530;18.620;2022-11-09T03:30:27;5.50;99.90
36416;DHT22;22447;44.530;18.620;2022-11-09T03:33:00;5.50;99.90
36416;DHT22;22447;44.530;18.620;2022-11-09T03:35:27;5.50;99.90
36416;DHT22;22447;44.530;18.620;2022-11-09T03:37:53;5.60;99.90
36416;DHT22;22447;44.530;18.620;2022-11-09T03:40:19;5.60;99.90
36416;DHT22;22447;44.530;18.620;2022-11-09T03:42:48;5.70;99.90
36416;DHT22;22447;44.530;18.620;2022-11-09T03:45:15;5.70;99.90
36416;DHT22;22447;44.530;18.620;2022-11-09T03:47:42;5.60;99.90
36416;DHT22;22447;44.530;18.620;2022-11-09T03:50:08;5.50;99.90
36416;DHT22;22447;44.530;18.620;2022-11-09T03:52:34;5.50;99.90
36416;DHT22;22447;44.530;18.620;2022-11-09T03:55:00;5.50;99.90
36416;DHT22;22447;44.530;18.620;2022-11-09T03:57:26;5.50;99.90
36416;DHT22;22447;44.530;18.620;2022-11-09T03:59:52;5.70;99.90
36416;DHT22;22447;44.530;18.620;2022-11-09T04:02:18;5.50;99.90
36416;DHT22;22447;44.530;18.620;2022-11-09T04:04:44;5.50;99.90
36416;DHT22;22447;44.530;18.620;2022-11-09T04:07:10;5.40;99.90
36416;DHT22;22447;44.530;18.620;2022-11-09T04:09:36;5.40;99.90
36416;DHT22;22447;44.530;18.620;2022-11-09T04:12:03;5.40;99.90
36416;DHT22;22447;44.530;18.620;2022-11-09T04:14:29;5.30;99.90
36416;DHT22;22447;44.530;18.620;2022-11-09T04:16:55;5.30;99.90
36416;DHT22;22447;44.530;18.620;2022-11-09T04:19:20;5.40;99.90
36416;DHT22;22447;44.530;18.620;2022-11-09T04:21:46;5.60;99.90
36416;DHT22;22447;44.530;18.620;2022-11-09T04:24:12;5.70;99.90
36416;DHT22;22447;44.530;18.620;2022-11-09T04:26:38;5.70;99.90
36416;DHT22;22447;44.530;18.620;2022-11-09T04:29:04;5.70;99.90
36416;DHT22;22447;44.530;18.620;2022-11-09T04:31:30;5.50;99.90
36416;DHT22;22447;44.530;18.620;2022-11-09T04:33:56;5.40;99.90
36416;DHT22;22447;44.530;18.620;2022-11-09T04:36:22;5.40;99.90
36416;DHT22;22447;44.530;18.620;2022-11-09T04:38:48;5.40;99.90
36416;DHT22;22447;44.530;18.620;2022-11-09T04:41:13;5.40;99.90
36416;DHT22;22447;44.530;18.620;2022-11-09T04:43:40;5.50;99.90
36416;DHT22;22447;44.530;18.620;2022-11-09T04:46:05;5.40;99.90
36416;DHT22;22447;44.530;18.620;2022-11-09T04:48:33;5.50;99.90
36416;DHT22;22447;44.530;18.620;2022-11-09T04:51:07;5.50;99.90
36416;DHT22;22447;44.530;18.620;2022-11-09T04:53:34;5.40;99.90
36416;DHT22;22447;44.530;18.620;2022-11-09T04:56:00;5.60;99.90
36416;DHT22;22447;44.530;18.620;2022-11-09T04:58:26;5.60;99.90
36416;DHT22;22447;44.530;18.620;2022-11-09T05:00:53;5.50;99.90
36416;DHT22;22447;44.530;18.620;2022-11-09T05:03:19;5.40;99.90
36416;DHT22;22447;44.530;18.620;2022-11-09T05:05:45;5.40;99.90
36416;DHT22;22447;44.530;18.620;2022-11-09T05:08:11;5.40;99.90
36416;DHT22;22447;44.530;18.620;2022-11-09T05:10:38;5.60;99.90
36416;DHT22;22447;44.530;18.620;2022-11-09T05:13:06;5.80;99.90
36416;DHT22;22447;44.530;18.620;2022-11-09T05:15:33;6.00;99.90
36416;DHT22;22447;44.530;18.620;2022-11-09T05:17:59;5.80;99.90
36416;DHT22;22447;44.530;18.620;2022-11-09T05:20:27;5.70;99.90
36416;DHT22;22447;44.530;18.620;2022-11-09T05:22:53;5.60;99.90
36416;DHT22;22447;44.530;18.620;2022-11-09T05:25:38;5.60;99.90
36416;DHT22;22447;44.530;18.620;2022-11-09T05:28:04;5.80;99.90
36416;DHT22;22447;44.530;18.620;2022-11-09T05:30:30;6.00;99.90
36416;DHT22;22447;44.530;18.620;2022-11-09T05:32:56;5.90;99.90
36416;DHT22;22447;44.530;18.620;2022-11-09T05:35:22;5.90;99.90
36416;DHT22;22447;44.530;18.620;2022-11-09T05:37:48;6.00;99.90
36416;DHT22;22447;44.530;18.620;2022-11-09T05:40:16;6.00;99.90
36416;DHT22;22447;44.530;18.620;2022-11-09T05:42:43;6.20;99.90
36416;DHT22;22447;44.530;18.620;2022-11-09T05:45:11;6.30;99.90
36416;DHT22;22447;44.530;18.620;2022-11-09T05:47:41;6.20;99.90
36416;DHT22;22447;44.530;18.620;2022-11-09T05:50:11;6.20;99.90
36416;DHT22;22447;44.530;18.620;2022-11-09T05:52:37;6.20;99.90
36416;DHT22;22447;44.530;18.620;2022-11-09T05:55:04;6.40;99.90
36416;DHT22;22447;44.530;18.620;2022-11-09T05:57:30;6.50;99.90
36416;DHT22;22447;44.530;18.620;2022-11-09T05:59:56;6.50;99.90
36416;DHT22;22447;44.530;18.620;2022-11-09T06:02:22;6.40;99.90
36416;DHT22;22447;44.530;18.620;2022-11-09T06:04:48;6.20;99.90
36416;DHT22;22447;44.530;18.620;2022-11-09T06:07:14;6.10;99.90
36416;DHT22;22447;44.530;18.620;2022-11-09T06:09:40;6.10;99.90
36416;DHT22;22447;44.530;18.620;2022-11-09T06:12:06;6.30;99.90
36416;DHT22;22447;44.530;18.620;2022-11-09T06:14:32;6.40;99.90
36416;DHT22;22447;44.530;18.620;2022-11-09T06:16:58;6.40;99.90
36416;DHT22;22447;44.530;18.620;2022-11-09T06:19:25;6.30;99.90
36416;DHT22;22447;44.530;18.620;2022-11-09T06:21:52;6.40;99.90
36416;DHT22;22447;44.530;18.620;2022-11-09T06:24:18;6.10;99.90
36416;DHT22;22447;44.530;18.620;2022-11-09T06:26:44;6.30;99.90
36416;DHT22;22447;44.530;18.620;2022-11-09T06:29:10;6.40;99.90
36416;DHT22;22447;44.530;18.620;2022-11-09T06:31:36;6.40;99.90
36416;DHT22;22447;44.530;18.620;2022-11-09T06:34:02;6.50;99.90
36416;DHT22;22447;44.530;18.620;2022-11-09T06:36:28;6.60;99.90
36416;DHT22;22447;44.530;18.620;2022-11-09T06:38:54;6.40;99.90
36416;DHT22;22447;44.530;18.620;2022-11-09T06:41:20;6.30;99.90
36416;DHT22;22447;44.530;18.620;2022-11-09T06:43:46;6.20;99.90
36416;DHT22;22447;44.530;18.620;2022-11-09T06:46:12;6.20;99.90
36416;DHT22;22447;44.530;18.620;2022-11-09T06:48:42;6.30;99.90
36416;DHT22;22447;44.530;18.620;2022-11-09T06:51:09;6.30;99.90
36416;DHT22;22447;44.530;18.620;2022-11-09T06:53:36;6.20;99.90
36416;DHT22;22447;44.530;18.620;2022-11-09T06:56:04;6.40;99.90
36416;DHT22;22447;44.530;18.620;2022-11-09T06:58:30;6.70;99.90
36416;DHT22;22447;44.530;18.620;2022-11-09T07:00:57;6.60;99.90
36416;DHT22;22447;44.530;18.620;2022-11-09T07:03:23;6.50;99.90
36416;DHT22;22447;44.530;18.620;2022-11-09T07:05:50;6.50;99.90
36416;DHT22;22447;44.530;18.620;2022-11-09T07:08:18;6.70;99.90
36416;DHT22;22447;44.530;18.620;2022-11-09T07:10:46;7.00;99.90
36416;DHT22;22447;44.530;18.620;2022-11-09T07:13:12;7.10;99.90
36416;DHT22;22447;44.530;18.620;2022-11-09T07:15:38;7.20;99.90
36416;DHT22;22447;44.530;18.620;2022-11-09T07:18:07;7.20;99.90
36416;DHT22;22447;44.530;18.620;2022-11-09T07:20:34;7.10;99.90
36416;DHT22;22447;44.530;18.620;2022-11-09T07:23:00;7.10;99.90
36416;DHT22;22447;44.530;18.620;2022-11-09T07:25:26;7.30;99.90
36416;DHT22;22447;44.530;18.620;2022-11-09T07:27:52;7.20;99.90
36416;DHT22;22447;44.530;18.620;2022-11-09T07:30:18;7.20;99.90
36416;DHT22;22447;44.530;18.620;2022-11-09T07:32:44;7.20;99.90
36416;DHT22;22447;44.530;18.620;2022-11-09T07:35:11;7.40;99.90
36416;DHT22;22447;44.530;18.620;2022-11-09T07:37:37;7.60;99.90
36416;DHT22;22447;44.530;18.620;2022-11-09T07:40:03;7.60;99.90
36416;DHT22;22447;44.530;18.620;2022-11-09T07:42:30;7.70;99.90
36416;DHT22;22447;44.530;18.620;2022-11-09T07:44:56;7.60;99.90
36416;DHT22;22447;44.530;18.620;2022-11-09T07:47:22;7.70;99.90
36416;DHT22;22447;44.530;18.620;2022-11-09T07:49:48;7.50;99.90
36416;DHT22;22447;44.530;18.620;2022-11-09T07:52:14;7.40;99.90
36416;DHT22;22447;44.530;18.620;2022-11-09T07:54:40;7.60;99.90
36416;DHT22;22447;44.530;18.620;2022-11-09T07:57:06;7.60;99.90
36416;DHT22;22447;44.530;18.620;2022-11-09T07:59:32;7.50;99.90
36416;DHT22;22447;44.530;18.620;2022-11-09T08:01:58;7.50;99.90
36416;DHT22;22447;44.530;18.620;2022-11-09T08:04:27;7.60;99.90
36416;DHT22;22447;44.530;18.620;2022-11-09T08:06:53;7.70;99.90
36416;DHT22;22447;44.530;18.620;2022-11-09T08:09:19;7.80;99.90
36416;DHT22;22447;44.530;18.620;2022-11-09T08:11:45;7.80;99.90
36416;DHT22;22447;44.530;18.620;2022-11-09T08:14:11;7.90;99.90
36416;DHT22;22447;44.530;18.620;2022-11-09T08:16:37;8.10;99.90
36416;DHT22;22447;44.530;18.620;2022-11-09T08:19:03;8.20;99.90
36416;DHT22;22447;44.530;18.620;2022-11-09T08:21:29;8.30;99.90
36416;DHT22;22447;44.530;18.620;2022-11-09T08:23:55;8.30;99.90
36416;DHT22;22447;44.530;18.620;2022-11-09T08:26:21;8.60;99.90
36416;DHT22;22447;44.530;18.620;2022-11-09T08:28:46;8.90;99.90
36416;DHT22;22447;44.530;18.620;2022-11-09T08:31:12;9.00;99.90
36416;DHT22;22447;44.530;18.620;2022-11-09T08:33:40;9.20;99.90
36416;DHT22;22447;44.530;18.620;2022-11-09T08:36:12;9.30;99.90
36416;DHT22;22447;44.530;18.620;2022-11-09T08:38:39;9.30;99.90
36416;DHT22;22447;44.530;18.620;2022-11-09T08:41:05;9.70;99.90
36416;DHT22;22447;44.530;18.620;2022-11-09T08:43:32;9.80;99.90
36416;DHT22;22447;44.530;18.620;2022-11-09T08:46:01;10.00;99.90
36416;DHT22;22447;44.530;18.620;2022-11-09T08:48:27;10.20;99.90
36416;DHT22;22447;44.530;18.620;2022-11-09T08:50:55;10.40;99.90
36416;DHT22;22447;44.530;18.620;2022-11-09T08:53:26;10.50;99.90
36416;DHT22;22447;44.530;18.620;2022-11-09T08:55:56;10.70;99.90
36416;DHT22;22447;44.530;18.620;2022-11-09T08:58:24;10.90;99.90
36416;DHT22;22447;44.530;18.620;2022-11-09T09:00:50;11.10;99.90
36416;DHT22;22447;44.530;18.620;2022-11-09T09:03:16;11.10;99.90
36416;DHT22;22447;44.530;18.620;2022-11-09T09:05:43;11.20;99.90
36416;DHT22;22447;44.530;18.620;2022-11-09T09:08:09;11.50;99.90
36416;DHT22;22447;44.530;18.620;2022-11-09T09:10:40;11.60;99.90
36416;DHT22;22447;44.530;18.620;2022-11-09T09:13:09;11.80;99.90
36416;DHT22;22447;44.530;18.620;2022-11-09T09:15:35;11.80;99.90
36416;DHT22;22447;44.530;18.620;2022-11-09T09:18:02;11.70;99.90
36416;DHT22;22447;44.530;18.620;2022-11-09T09:20:29;11.90;99.90
36416;DHT22;22447;44.530;18.620;2022-11-09T09:22:57;11.70;99.90
36416;DHT22;22447;44.530;18.620;2022-11-09T09:25:24;12.50;99.90
36416;DHT22;22447;44.530;18.620;2022-11-09T09:27:50;13.30;99.90
36416;DHT22;22447;44.530;18.620;2022-11-09T09:30:17;14.30;99.90
36416;DHT22;22447;44.530;18.620;2022-11-09T09:32:42;15.10;99.90
36416;DHT22;22447;44.530;18.620;2022-11-09T09:35:10;15.80;97.40
36416;DHT22;22447;44.530;18.620;2022-11-09T09:37:36;16.10;95.00
36416;DHT22;22447;44.530;18.620;2022-11-09T09:40:02;16.70;93.10
36416;DHT22;22447;44.530;18.620;2022-11-09T09:42:35;17.20;91.80
36416;DHT22;22447;44.530;18.620;2022-11-09T09:45:14;18.00;90.40
36416;DHT22;22447;44.530;18.620;2022-11-09T09:48:16;18.50;83.40
36416;DHT22;22447;44.530;18.620;2022-11-09T09:50:53;19.40;78.90
36416;DHT22;22447;44.530;18.620;2022-11-09T09:53:35;19.60;76.10
36416;DHT22;22447;44.530;18.620;2022-11-09T09:56:11;19.80;74.00
36416;DHT22;22447;44.530;18.620;2022-11-09T09:58:44;20.00;71.70
36416;DHT22;22447;44.530;18.620;2022-11-09T10:01:17;20.20;69.70
36416;DHT22;22447;44.530;18.620;2022-11-09T10:03:46;20.80;67.40
36416;DHT22;22447;44.530;18.620;2022-11-09T10:26:16;20.30;67.10
36416;DHT22;22447;44.530;18.620;2022-11-09T10:28:44;20.30;66.00
36416;DHT22;22447;44.530;18.620;2022-11-09T10:31:19;20.50;65.90
36416;DHT22;22447;44.530;18.620;2022-11-09T10:33:52;20.80;67.00
36416;DHT22;22447;44.530;18.620;2022-11-09T10:38:49;21.80;63.30
36416;DHT22;22447;44.530;18.620;2022-11-09T10:41:39;22.20;60.70
36416;DHT22;22447;44.530;18.620;2022-11-09T10:44:23;22.70;58.80
36416;DHT22;22447;44.530;18.620;2022-11-09T10:47:13;23.20;56.40
36416;DHT22;22447;44.530;18.620;2022-11-09T10:53:21;23.40;53.70
36416;DHT22;22447;44.530;18.620;2022-11-09T10:56:13;22.80;50.40
36416;DHT22;22447;44.530;18.620;2022-11-09T10:58:58;22.60;52.30
36416;DHT22;22447;44.530;18.620;2022-11-09T11:01:42;23.20;49.60
36416;DHT22;22447;44.530;18.620;2022-11-09T11:04:28;23.40;51.30
36416;DHT22;22447;44.530;18.620;2022-11-09T11:07:14;24.10;48.60
36416;DHT22;22447;44.530;18.620;2022-11-09T11:10:17;23.80;47.50
36416;DHT22;22447;44.530;18.620;2022-11-09T11:15:49;24.20;46.50
36416;DHT22;22447;44.530;18.620;2022-11-09T11:18:35;24.50;46.90
36416;DHT22;22447;44.530;18.620;2022-11-09T11:21:23;25.10;47.00
36416;DHT22;22447;44.530;18.620;2022-11-09T11:24:16;25.30;45.20
36416;DHT22;22447;44.530;18.620;2022-11-09T11:27:07;25.60;45.90
36416;DHT22;22447;44.530;18.620;2022-11-09T11:30:15;25.60;46.20
36416;DHT22;22447;44.530;18.620;2022-11-09T11:33:04;26.10;46.20
36416;DHT22;22447;44.530;18.620;2022-11-09T11:36:10;25.90;45.30
36416;DHT22;22447;44.530;18.620;2022-11-09T11:48:18;25.00;45.20
36416;DHT22;22447;44.530;18.620;2022-11-09T11:54:20;25.30;44.30
36416;DHT22;22447;44.530;18.620;2022-11-09T12:00:15;25.50;43.00
36416;DHT22;22447;44.530;18.620;2022-11-09T12:03:45;26.20;46.70
36416;DHT22;22447;44.530;18.620;2022-11-09T12:18:13;26.80;41.60
36416;DHT22;22447;44.530;18.620;2022-11-09T12:30:22;26.00;42.00
36416;DHT22;22447;44.530;18.620;2022-11-09T12:33:11;26.00;41.80
36416;DHT22;22447;44.530;18.620;2022-11-09T12:36:23;26.40;38.40
36416;DHT22;22447;44.530;18.620;2022-11-09T12:39:27;26.00;38.80
36416;DHT22;22447;44.530;18.620;2022-11-09T12:50:56;25.80;41.60
36416;DHT22;22447;44.530;18.620;2022-11-09T12:53:42;25.60;40.10
36416;DHT22;22447;44.530;18.620;2022-11-09T12:56:33;25.60;41.70
36416;DHT22;22447;44.530;18.620;2022-11-09T13:02:22;25.20;39.90
36416;DHT22;22447;44.530;18.620;2022-11-09T13:05:27;25.50;39.80
36416;DHT22;22447;44.530;18.620;2022-11-09T13:08:27;25.40;39.50
36416;DHT22;22447;44.530;18.620;2022-11-09T13:11:39;25.40;40.10
36416;DHT22;22447;44.530;18.620;2022-11-09T13:23:33;25.00;39.50
36416;DHT22;22447;44.530;18.620;2022-11-09T13:29:20;25.10;39.80
36416;DHT22;22447;44.530;18.620;2022-11-09T13:34:56;24.50;40.30
36416;DHT22;22447;44.530;18.620;2022-11-09T13:37:52;24.50;41.70
36416;DHT22;22447;44.530;18.620;2022-11-09T13:40:39;24.50;42.00
36416;DHT22;22447;44.530;18.620;2022-11-09T13:43:29;24.00;44.20
36416;DHT22;22447;44.530;18.620;2022-11-09T13:46:27;23.20;45.90
36416;DHT22;22447;44.530;18.620;2022-11-09T13:55:30;23.50;47.60
36416;DHT22;22447;44.530;18.620;2022-11-09T13:58:31;23.40;46.00
36416;DHT22;22447;44.530;18.620;2022-11-09T14:01:27;23.50;48.10
36416;DHT22;22447;44.530;18.620;2022-11-09T14:04:39;23.10;48.80
36416;DHT22;22447;44.530;18.620;2022-11-09T14:07:31;22.70;49.90
36416;DHT22;22447;44.530;18.620;2022-11-09T14:16:24;22.30;50.40
36416;DHT22;22447;44.530;18.620;2022-11-09T14:22:18;21.70;51.00
36416;DHT22;22447;44.530;18.620;2022-11-09T14:25:11;21.90;52.90
36416;DHT22;22447;44.530;18.620;2022-11-09T14:27:56;21.90;51.60
36416;DHT22;22447;44.530;18.620;2022-11-09T14:30:43;21.60;53.80
36416;DHT22;22447;44.530;18.620;2022-11-09T14:33:30;21.60;53.60
36416;DHT22;22447;44.530;18.620;2022-11-09T14:36:17;21.30;55.60
36416;DHT22;22447;44.530;18.620;2022-11-09T14:39:04;20.90;56.00
36416;DHT22;22447;44.530;18.620;2022-11-09T14:41:49;21.10;56.00
36416;DHT22;22447;44.530;18.620;2022-11-09T14:44:37;20.90;57.00
36416;DHT22;22447;44.530;18.620;2022-11-09T14:47:31;20.70;56.90
36416;DHT22;22447;44.530;18.620;2022-11-09T14:50:28;20.60;57.90
36416;DHT22;22447;44.530;18.620;2022-11-09T14:53:25;20.30;57.80
36416;DHT22;22447;44.530;18.620;2022-11-09T14:56:15;19.60;59.10
36416;DHT22;22447;44.530;18.620;2022-11-09T14:59:04;19.20;60.00
36416;DHT22;22447;44.530;18.620;2022-11-09T15:02:01;18.90;61.00
36416;DHT22;22447;44.530;18.620;2022-11-09T15:05:02;18.50;63.40
36416;DHT22;22447;44.530;18.620;2022-11-09T15:07:47;18.20;65.60
36416;DHT22;22447;44.530;18.620;2022-11-09T15:10:32;17.90;67.30
36416;DHT22;22447;44.530;18.620;2022-11-09T15:13:26;17.60;69.30
36416;DHT22;22447;44.530;18.620;2022-11-09T15:16:20;17.30;70.20
36416;DHT22;22447;44.530;18.620;2022-11-09T15:19:18;16.70;72.20
36416;DHT22;22447;44.530;18.620;2022-11-09T15:22:03;16.30;73.90
36416;DHT22;22447;44.530;18.620;2022-11-09T15:24:47;16.30;74.80
36416;DHT22;22447;44.530;18.620;2022-11-09T15:27:34;15.70;77.50
36416;DHT22;22447;44.530;18.620;2022-11-09T15:30:34;15.30;80.00
36416;DHT22;22447;44.530;18.620;2022-11-09T15:33:45;15.00;82.90
36416;DHT22;22447;44.530;18.620;2022-11-09T15:36:32;14.60;86.50
36416;DHT22;22447;44.530;18.620;2022-11-09T15:39:20;14.50;89.20
36416;DHT22;22447;44.530;18.620;2022-11-09T15:42:04;14.30;90.90
36416;DHT22;22447;44.530;18.620;2022-11-09T15:44:54;14.10;92.40
36416;DHT22;22447;44.530;18.620;2022-11-09T15:47:39;14.00;94.20
36416;DHT22;22447;44.530;18.620;2022-11-09T15:50:25;14.00;96.00
36416;DHT22;22447;44.530;18.620;2022-11-09T15:53:11;13.70;97.70
36416;DHT22;22447;44.530;18.620;2022-11-09T15:55:56;13.40;99.90
36416;DHT22;22447;44.530;18.620;2022-11-09T15:58:40;13.20;99.90
36416;DHT22;22447;44.530;18.620;2022-11-09T16:01:25;13.00;99.90
36416;DHT22;22447;44.530;18.620;2022-11-09T16:04:11;13.00;99.90
36416;DHT22;22447;44.530;18.620;2022-11-09T16:06:55;13.00;99.90
36416;DHT22;22447;44.530;18.620;2022-11-09T16:09:40;12.90;99.90
36416;DHT22;22447;44.530;18.620;2022-11-09T16:12:25;12.80;99.90
36416;DHT22;22447;44.530;18.620;2022-11-09T16:15:10;12.70;99.90
36416;DHT22;22447;44.530;18.620;2022-11-09T16:17:54;12.60;99.90
36416;DHT22;22447;44.530;18.620;2022-11-09T16:20:39;12.40;99.90
36416;DHT22;22447;44.530;18.620;2022-11-09T16:23:24;12.20;99.90
36416;DHT22;22447;44.530;18.620;2022-11-09T16:26:15;12.10;99.90
36416;DHT22;22447;44.530;18.620;2022-11-09T16:29:00;12.00;99.90
36416;DHT22;22447;44.530;18.620;2022-11-09T16:31:45;12.00;99.90
36416;DHT22;22447;44.530;18.620;2022-11-09T16:34:29;11.90;99.90
36416;DHT22;22447;44.530;18.620;2022-11-09T16:37:14;11.70;99.90
36416;DHT22;22447;44.530;18.620;2022-11-09T16:39:59;11.70;99.90
36416;DHT22;22447;44.530;18.620;2022-11-09T16:42:45;11.60;99.90
36416;DHT22;22447;44.530;18.620;2022-11-09T16:45:30;11.40;99.90
36416;DHT22;22447;44.530;18.620;2022-11-09T16:48:16;11.30;99.90
36416;DHT22;22447;44.530;18.620;2022-11-09T16:51:01;11.10;99.90
36416;DHT22;22447;44.530;18.620;2022-11-09T16:53:45;11.10;99.90
36416;DHT22;22447;44.530;18.620;2022-11-09T16:56:30;11.00;99.90
36416;DHT22;22447;44.530;18.620;2022-11-09T16:59:16;10.70;99.90
36416;DHT22;22447;44.530;18.620;2022-11-09T17:02:02;10.70;99.90
36416;DHT22;22447;44.530;18.620;2022-11-09T17:04:47;10.70;99.90
36416;DHT22;22447;44.530;18.620;2022-11-09T17:07:31;10.50;99.90
36416;DHT22;22447;44.530;18.620;2022-11-09T17:10:20;10.50;99.90
36416;DHT22;22447;44.530;18.620;2022-11-09T17:13:04;10.50;99.90
36416;DHT22;22447;44.530;18.620;2022-11-09T17:15:51;10.40;99.90
36416;DHT22;22447;44.530;18.620;2022-11-09T17:18:36;10.30;99.90
36416;DHT22;22447;44.530;18.620;2022-11-09T17:21:22;10.30;99.90
36416;DHT22;22447;44.530;18.620;2022-11-09T17:24:07;10.20;99.90
36416;DHT22;22447;44.530;18.620;2022-11-09T17:26:52;10.00;99.90
36416;DHT22;22447;44.530;18.620;2022-11-09T17:29:37;10.00;99.90
36416;DHT22;22447;44.530;18.620;2022-11-09T17:32:22;10.00;99.90
36416;DHT22;22447;44.530;18.620;2022-11-09T17:35:10;9.90;99.90
36416;DHT22;22447;44.530;18.620;2022-11-09T17:37:54;9.80;99.90
36416;DHT22;22447;44.530;18.620;2022-11-09T17:40:39;9.70;99.90
36416;DHT22;22447;44.530;18.620;2022-11-09T17:43:24;9.70;99.90
36416;DHT22;22447;44.530;18.620;2022-11-09T17:46:11;9.60;99.90
36416;DHT22;22447;44.530;18.620;2022-11-09T17:48:55;9.60;99.90
36416;DHT22;22447;44.530;18.620;2022-11-09T17:51:40;9.50;99.90
36416;DHT22;22447;44.530;18.620;2022-11-09T17:54:25;9.30;99.90
36416;DHT22;22447;44.530;18.620;2022-11-09T17:57:12;9.30;99.90
36416;DHT22;22447;44.530;18.620;2022-11-09T17:59:56;9.20;99.90
36416;DHT22;22447;44.530;18.620;2022-11-09T18:02:42;9.10;99.90
36416;DHT22;22447;44.530;18.620;2022-11-09T18:05:27;9.00;99.90